Time;durP1;ratioP1;P1;durP2;ratioP2;P2;SDS_P1;SDS_P2;PMS_P1;PMS_P2;Temp;Humidity;BMP_temperature;BMP_pressure;BME280_temperature;BME280_humidity;BME280_pressure;Samples;Min_cycle;Max_cycle;Signal;HPM_P1;HPM_P2
2024/01/18 00:00:17;;;;;;;11.20;5.85;;;-1.30;91.70;;;;;;5100113;28;20420;-77
2024/01/18 00:02:43;;;;;;;13.13;5.63;;;-1.30;91.70;;;;;;5094936;28;20777;-78
2024/01/18 00:05:09;;;;;;;10.15;4.95;;;-1.30;91.70;;;;;;5097257;27;20409;-77
2024/01/18 00:07:35;;;;;;;9.43;5.15;;;-1.30;91.80;;;;;;5095916;28;20989;-76
2024/01/18 00:10:01;;;;;;;9.52;4.30;;;-1.30;91.70;;;;;;5102925;27;20506;-76
2024/01/18 00:12:26;;;;;;;9.63;4.20;;;-1.30;91.70;;;;;;5089362;28;20426;-76
2024/01/18 00:14:52;;;;;;;9.50;3.53;;;-1.30;91.90;;;;;;5103554;28;20424;-76
2024/01/18 00:17:17;;;;;;;10.75;3.70;;;-1.20;92.00;;;;;;5089489;28;20414;-76
2024/01/18 00:19:43;;;;;;;9.47;3.67;;;-1.20;92.00;;;;;;5103800;28;20416;-76
2024/01/18 00:22:09;;;;;;;8.03;3.27;;;-1.20;91.90;;;;;;5088409;28;20414;-76
2024/01/18 00:24:34;;;;;;;7.53;3.40;;;-1.20;91.90;;;;;;5104208;28;20431;-75
2024/01/18 00:27:00;;;;;;;9.13;3.40;;;-1.20;91.70;;;;;;5090907;28;20499;-76
2024/01/18 00:29:26;;;;;;;6.90;2.92;;;-1.20;91.80;;;;;;5103457;28;20438;-76
2024/01/18 00:31:52;;;;;;;7.03;2.90;;;-1.20;91.80;;;;;;5098176;28;20420;-76
2024/01/18 00:34:17;;;;;;;9.03;3.63;;;-1.20;91.80;;;;;;5103633;28;20404;-76
2024/01/18 00:36:46;;;;;;;8.38;4.43;;;-1.20;91.60;;;;;;5097308;28;20457;-76
2024/01/18 00:39:16;;;;;;;8.15;3.65;;;-1.30;91.50;;;;;;5090889;28;20432;-76
2024/01/18 00:41:42;;;;;;;5.05;2.00;;;-1.30;91.50;;;;;;5100689;28;20421;-76
2024/01/18 00:44:08;;;;;;;5.13;2.27;;;-1.30;91.70;;;;;;5097520;28;20414;-76
2024/01/18 00:46:34;;;;;;;5.40;2.00;;;-1.30;92.00;;;;;;5098416;28;20469;-76
2024/01/18 00:48:59;;;;;;;3.83;0.60;;;-1.30;92.00;;;;;;5092712;28;20983;-75
2024/01/18 00:51:25;;;;;;;4.10;1.20;;;-1.20;92.10;;;;;;5100679;28;20405;-76
2024/01/18 00:53:51;;;;;;;3.13;1.00;;;-1.20;92.40;;;;;;5102572;28;20424;-75
2024/01/18 00:56:16;;;;;;;4.90;0.90;;;-1.20;92.60;;;;;;5089657;28;20520;-75
2024/01/18 00:58:42;;;;;;;4.65;1.02;;;-1.10;93.00;;;;;;5103015;28;20862;-75
2024/01/18 01:01:08;;;;;;;6.17;1.20;;;-1.10;93.00;;;;;;5098749;28;20988;-76
2024/01/18 01:03:33;;;;;;;5.00;0.60;;;-1.10;92.80;;;;;;5091169;28;20432;-76
2024/01/18 01:05:59;;;;;;;3.92;0.77;;;-1.10;92.80;;;;;;5089646;28;20404;-76
2024/01/18 01:08:26;;;;;;;2.13;0.50;;;-1.10;92.70;;;;;;5097684;28;20453;-76
2024/01/18 01:10:52;;;;;;;3.90;0.65;;;-1.00;92.80;;;;;;5098783;28;20414;-76
2024/01/18 01:13:17;;;;;;;3.00;0.40;;;-1.00;92.90;;;;;;5099580;28;20776;-75
2024/01/18 01:15:43;;;;;;;3.00;0.50;;;-1.00;92.80;;;;;;5098957;28;20516;-76
2024/01/18 01:18:10;;;;;;;3.90;0.85;;;-1.00;92.70;;;;;;5099812;28;20412;-76
2024/01/18 01:20:36;;;;;;;2.83;0.77;;;-1.00;92.50;;;;;;5089158;28;20389;-75
2024/01/18 01:23:03;;;;;;;3.72;0.73;;;-1.10;92.20;;;;;;5101894;28;20420;-76
2024/01/18 01:25:28;;;;;;;3.33;0.70;;;-1.10;92.10;;;;;;5098670;28;20406;-76
2024/01/18 01:27:54;;;;;;;3.67;0.60;;;-1.10;92.00;;;;;;5102782;28;20427;-76
2024/01/18 01:30:19;;;;;;;2.55;0.65;;;-1.10;91.90;;;;;;5098861;28;20494;-76
2024/01/18 01:32:45;;;;;;;5.55;1.00;;;-1.10;91.90;;;;;;5103064;28;20436;-76
2024/01/18 01:35:11;;;;;;;4.57;0.50;;;-1.20;91.80;;;;;;5088775;28;20430;-76
2024/01/18 01:37:37;;;;;;;2.83;0.63;;;-1.20;91.80;;;;;;5094854;28;20434;-76
2024/01/18 01:40:05;;;;;;;3.00;0.40;;;-1.20;92.00;;;;;;5089116;28;20410;-75
2024/01/18 01:42:30;;;;;;;4.57;0.40;;;-1.10;92.50;;;;;;5096815;28;20436;-76
2024/01/18 01:44:56;;;;;;;2.85;0.40;;;-1.10;93.10;;;;;;5094998;28;20422;-76
2024/01/18 01:47:22;;;;;;;4.55;0.40;;;-0.90;93.70;;;;;;5095556;28;20443;-76
2024/01/18 01:49:48;;;;;;;4.97;0.60;;;-0.90;94.10;;;;;;5092165;28;20437;-76
2024/01/18 01:52:15;;;;;;;2.25;0.30;;;-0.80;94.10;;;;;;5103628;28;20500;-75
2024/01/18 01:54:42;;;;;;;2.92;0.30;;;-0.70;94.20;;;;;;5098398;28;20422;-75
2024/01/18 01:57:08;;;;;;;2.22;0.40;;;-0.60;94.20;;;;;;5104346;28;20400;-76
2024/01/18 01:59:34;;;;;;;3.90;0.40;;;-0.50;94.20;;;;;;5091440;28;20920;-75
2024/01/18 02:02:00;;;;;;;4.30;0.37;;;-0.50;94.20;;;;;;5096800;28;20445;-76
2024/01/18 02:04:28;;;;;;;3.55;0.40;;;-0.40;94.40;;;;;;5099890;28;20410;-76
2024/01/18 02:06:55;;;;;;;2.72;0.22;;;-0.40;94.50;;;;;;5097861;28;20477;-76
2024/01/18 02:09:21;;;;;;;2.80;0.20;;;-0.30;94.80;;;;;;5095165;28;20422;-76
2024/01/18 02:11:47;;;;;;;3.42;0.20;;;-0.20;95.10;;;;;;5095765;28;20499;-76
2024/01/18 02:14:13;;;;;;;1.85;0.25;;;-0.10;95.30;;;;;;5099962;28;20809;-76
2024/01/18 02:16:39;;;;;;;2.23;0.30;;;-0.10;95.20;;;;;;5102476;28;20824;-76
2024/01/18 02:19:05;;;;;;;5.78;0.40;;;-0.10;95.10;;;;;;5098099;28;20504;-76
2024/01/18 02:21:30;;;;;;;4.07;0.30;;;-0.10;94.90;;;;;;5103570;28;20510;-76
2024/01/18 02:24:22;;;;;;;3.15;0.20;;;-0.20;94.50;;;;;;5096987;28;20398;-76
2024/01/18 02:26:48;;;;;;;1.17;0.15;;;-0.20;94.30;;;;;;5083411;28;20425;-77
2024/01/18 02:29:14;;;;;;;2.47;0.35;;;-0.30;94.10;;;;;;5094813;28;20492;-76
2024/01/18 02:31:39;;;;;;;2.00;0.10;;;-0.30;94.10;;;;;;5089735;28;20413;-75
2024/01/18 02:34:09;;;;;;;2.70;0.30;;;-0.40;93.70;;;;;;5099632;28;20436;-75
2024/01/18 02:36:35;;;;;;;2.42;0.30;;;-0.50;93.60;;;;;;5089617;28;20549;-76
2024/01/18 02:39:02;;;;;;;2.30;0.13;;;-0.60;93.70;;;;;;5089230;28;20517;-75
2024/01/18 02:41:28;;;;;;;3.22;0.30;;;-0.60;93.70;;;;;;5091896;28;20421;-76
2024/01/18 02:43:55;;;;;;;5.13;0.40;;;-0.70;93.70;;;;;;5098262;28;20434;-76
2024/01/18 02:46:20;;;;;;;4.57;0.30;;;-0.80;93.70;;;;;;5096922;28;20414;-76
2024/01/18 02:48:46;;;;;;;3.63;0.40;;;-0.80;93.80;;;;;;5088684;28;20404;-77
2024/01/18 02:51:12;;;;;;;4.17;0.40;;;-0.90;93.80;;;;;;5078140;28;20498;-76
2024/01/18 02:53:37;;;;;;;5.83;0.40;;;-0.90;93.80;;;;;;5089725;28;20495;-76
2024/01/18 02:56:03;;;;;;;4.65;0.30;;;-1.00;93.80;;;;;;5089059;28;20452;-77
2024/01/18 02:58:29;;;;;;;5.85;0.43;;;-1.00;93.90;;;;;;5086765;28;20923;-77
2024/01/18 03:00:54;;;;;;;3.07;0.50;;;-1.00;94.00;;;;;;5090160;28;20779;-77
2024/01/18 03:03:20;;;;;;;3.40;0.40;;;-1.10;94.00;;;;;;5089218;28;20446;-76
2024/01/18 03:05:45;;;;;;;4.00;0.40;;;-1.10;94.00;;;;;;5089970;28;20422;-77
2024/01/18 03:08:11;;;;;;;2.90;0.43;;;-1.20;94.20;;;;;;5088046;28;20420;-76
2024/01/18 03:10:37;;;;;;;5.33;0.50;;;-1.20;94.10;;;;;;5095088;28;20789;-77
2024/01/18 03:13:03;;;;;;;3.55;0.80;;;-1.20;94.10;;;;;;5088532;28;20474;-77
2024/01/18 03:15:28;;;;;;;5.07;1.80;;;-1.20;94.20;;;;;;5090129;28;20429;-77
2024/01/18 03:17:54;;;;;;;7.80;1.90;;;-1.30;94.40;;;;;;5088002;28;20418;-77
2024/01/18 03:20:20;;;;;;;6.57;1.77;;;-1.30;94.40;;;;;;5070306;28;20422;-77
2024/01/18 03:22:45;;;;;;;9.47;2.60;;;-1.30;94.40;;;;;;5088834;28;20465;-76
2024/01/18 03:25:12;;;;;;;6.97;1.92;;;-1.30;94.50;;;;;;5089722;28;20808;-76
2024/01/18 03:27:38;;;;;;;6.18;1.70;;;-1.30;94.60;;;;;;5089336;28;20449;-76
2024/01/18 03:30:04;;;;;;;5.63;1.27;;;-1.20;94.90;;;;;;5071077;28;20457;-76
2024/01/18 03:32:30;;;;;;;5.80;0.60;;;-1.20;95.20;;;;;;5088774;28;20421;-77
2024/01/18 03:34:55;;;;;;;4.07;0.43;;;-1.10;95.60;;;;;;5086496;28;21096;-77
2024/01/18 03:37:21;;;;;;;3.60;0.50;;;-1.00;95.80;;;;;;5099723;28;20408;-77
2024/01/18 03:39:47;;;;;;;8.03;0.90;;;-1.00;96.00;;;;;;5089388;28;20421;-76
2024/01/18 03:42:12;;;;;;;4.07;0.43;;;-0.90;96.10;;;;;;5106297;28;20431;-76
2024/01/18 03:44:38;;;;;;;3.53;0.37;;;-0.90;96.20;;;;;;5103475;28;20416;-76
2024/01/18 03:47:04;;;;;;;5.97;0.50;;;-0.80;96.20;;;;;;5091226;28;20406;-76
2024/01/18 03:49:29;;;;;;;5.65;0.40;;;-0.80;96.10;;;;;;5088375;28;20867;-76
2024/01/18 03:51:55;;;;;;;2.08;0.40;;;-0.70;96.10;;;;;;5089356;28;20493;-76
2024/01/18 03:54:20;;;;;;;4.67;0.50;;;-0.70;96.30;;;;;;5088170;28;20475;-76
2024/01/18 03:56:47;;;;;;;3.53;0.40;;;-0.60;96.40;;;;;;5088175;28;20398;-77
2024/01/18 03:59:15;;;;;;;4.55;0.40;;;-0.60;96.30;;;;;;5088312;28;20436;-76
2024/01/18 04:01:41;;;;;;;4.28;0.40;;;-0.60;96.30;;;;;;5090384;28;21294;-76
2024/01/18 04:04:08;;;;;;;2.75;0.30;;;-0.60;96.40;;;;;;5087445;28;20497;-76
2024/01/18 04:06:33;;;;;;;3.53;0.40;;;-0.50;96.50;;;;;;5089023;28;20412;-76
2024/01/18 04:08:59;;;;;;;2.50;0.20;;;-0.50;96.50;;;;;;5087578;28;20784;-77
2024/01/18 04:11:25;;;;;;;2.53;0.28;;;-0.50;96.80;;;;;;5088695;28;20394;-76
2024/01/18 04:13:50;;;;;;;1.77;0.40;;;-0.40;97.50;;;;;;5086813;28;20414;-76
2024/01/18 04:16:16;;;;;;;2.83;0.30;;;-0.30;97.90;;;;;;5091311;28;20507;-76
2024/01/18 04:18:42;;;;;;;4.07;0.30;;;-0.20;97.90;;;;;;5100629;28;20418;-77
2024/01/18 04:21:07;;;;;;;1.70;0.30;;;-0.20;97.80;;;;;;5103681;28;20465;-76
2024/01/18 04:23:33;;;;;;;3.75;1.30;;;-0.10;97.90;;;;;;5094862;28;20418;-76
2024/01/18 04:25:59;;;;;;;5.30;1.20;;;-0.10;97.30;;;;;;5093215;28;20410;-76
2024/01/18 04:28:24;;;;;;;3.37;0.70;;;-0.20;96.80;;;;;;5095690;28;20777;-76
2024/01/18 04:30:50;;;;;;;4.28;0.45;;;-0.20;96.50;;;;;;5093067;28;20510;-77
2024/01/18 04:33:18;;;;;;;3.85;0.50;;;-0.30;96.00;;;;;;5103272;28;21516;-76
2024/01/18 04:35:44;;;;;;;2.25;0.40;;;-0.40;95.50;;;;;;5097208;28;20439;-76
2024/01/18 04:38:09;;;;;;;2.58;0.35;;;-0.50;95.30;;;;;;5100105;28;20426;-76
2024/01/18 04:40:35;;;;;;;2.93;0.37;;;-0.70;95.30;;;;;;5089962;28;20426;-76
2024/01/18 04:43:01;;;;;;;3.30;0.63;;;-0.70;95.40;;;;;;5107210;28;20421;-76
2024/01/18 04:45:27;;;;;;;3.55;0.40;;;-0.80;95.20;;;;;;5100095;28;20413;-76
2024/01/18 04:47:53;;;;;;;4.72;0.50;;;-0.90;95.10;;;;;;5070031;28;20834;-76
2024/01/18 04:50:24;;;;;;;3.63;0.45;;;-1.00;95.20;;;;;;5087286;28;20427;-76
2024/01/18 04:52:50;;;;;;;3.63;0.50;;;-1.00;95.30;;;;;;5087876;28;20492;-76
2024/01/18 04:55:16;;;;;;;2.88;0.40;;;-1.00;95.60;;;;;;5084634;28;20424;-76
2024/01/18 04:57:41;;;;;;;4.28;0.50;;;-1.10;95.90;;;;;;5087938;28;20409;-77
2024/01/18 05:00:10;;;;;;;4.88;0.60;;;-1.10;96.10;;;;;;5087836;28;20394;-76
2024/01/18 05:02:39;;;;;;;3.53;0.50;;;-1.10;96.20;;;;;;5087398;28;20414;-76
2024/01/18 05:05:08;;;;;;;4.60;0.90;;;-1.10;96.20;;;;;;5085767;28;20454;-77
2024/01/18 05:07:44;;;;;;;4.10;0.60;;;-1.10;96.20;;;;;;5098506;28;20424;-76
2024/01/18 05:10:10;;;;;;;3.33;0.50;;;-1.10;96.10;;;;;;5074829;28;20405;-76
2024/01/18 05:12:37;;;;;;;4.07;0.60;;;-1.20;95.90;;;;;;5099339;28;20906;-76
2024/01/18 05:15:04;;;;;;;3.25;0.50;;;-1.20;95.70;;;;;;5102032;28;20444;-76
2024/01/18 05:17:37;;;;;;;3.78;0.70;;;-1.30;95.60;;;;;;5081754;28;20417;-77
2024/01/18 05:20:06;;;;;;;5.10;0.70;;;-1.40;95.20;;;;;;5106821;28;20461;-76
2024/01/18 05:22:32;;;;;;;7.07;0.90;;;-1.50;95.20;;;;;;5091513;28;20491;-76
2024/01/18 05:25:02;;;;;;;3.03;0.60;;;-1.50;95.20;;;;;;5101426;28;20404;-76
2024/01/18 05:27:29;;;;;;;4.45;0.47;;;-1.60;95.30;;;;;;5087320;28;20449;-76
2024/01/18 05:29:56;;;;;;;3.90;0.70;;;-1.60;95.30;;;;;;5104371;28;20499;-76
2024/01/18 05:32:21;;;;;;;5.28;1.02;;;-1.70;95.30;;;;;;5093962;28;20414;-76
2024/01/18 05:34:48;;;;;;;5.30;0.90;;;-1.70;95.50;;;;;;5099852;28;20427;-76
2024/01/18 05:37:15;;;;;;;5.53;0.88;;;-1.70;95.50;;;;;;5083850;28;20428;-76
2024/01/18 05:39:40;;;;;;;5.70;1.13;;;-1.80;95.30;;;;;;5104565;28;20498;-76
2024/01/18 05:42:06;;;;;;;4.30;0.93;;;-1.80;95.00;;;;;;5102507;28;20958;-76
2024/01/18 05:44:32;;;;;;;2.72;0.70;;;-1.90;95.20;;;;;;5107448;28;20420;-76
2024/01/18 05:46:58;;;;;;;7.35;1.00;;;-1.90;95.00;;;;;;5089955;28;20405;-76
2024/01/18 05:49:24;;;;;;;6.53;0.93;;;-2.00;95.20;;;;;;5091233;28;20817;-77
2024/01/18 05:51:50;;;;;;;5.00;0.87;;;-1.90;95.40;;;;;;5091509;28;20410;-76
2024/01/18 05:54:15;;;;;;;5.25;0.75;;;-2.00;95.40;;;;;;5091393;28;20477;-76
2024/01/18 05:56:41;;;;;;;5.38;0.85;;;-2.00;95.60;;;;;;5089569;28;20792;-76
2024/01/18 05:59:07;;;;;;;6.60;1.00;;;-1.90;95.80;;;;;;5089148;28;20931;-76
2024/01/18 06:01:32;;;;;;;5.68;1.00;;;-1.90;95.80;;;;;;5090436;28;20425;-76
2024/01/18 06:03:58;;;;;;;6.77;1.27;;;-1.90;95.80;;;;;;5089783;28;20892;-76
2024/01/18 06:06:26;;;;;;;5.18;0.85;;;-1.80;96.20;;;;;;5088696;28;20468;-77
2024/01/18 06:08:51;;;;;;;6.13;1.25;;;-1.70;96.90;;;;;;5088383;28;20458;-77
2024/01/18 06:11:18;;;;;;;5.32;1.02;;;-1.60;97.40;;;;;;5089251;28;20436;-77
2024/01/18 06:13:44;;;;;;;6.97;0.85;;;-1.50;97.90;;;;;;5089213;28;20421;-76
2024/01/18 06:16:10;;;;;;;6.40;0.50;;;-1.40;98.10;;;;;;5089372;28;20800;-77
2024/01/18 06:18:37;;;;;;;5.57;0.50;;;-1.30;98.30;;;;;;5087670;28;20429;-77
2024/01/18 06:21:12;;;;;;;6.22;0.55;;;-1.10;98.60;;;;;;5089263;28;20398;-76
2024/01/18 06:23:37;;;;;;;7.63;0.80;;;-1.00;98.80;;;;;;5089363;28;20519;-77
2024/01/18 06:26:07;;;;;;;2.90;0.30;;;-0.80;98.70;;;;;;5089357;28;20417;-77
2024/01/18 06:28:33;;;;;;;5.65;0.60;;;-0.70;99.00;;;;;;5089186;28;21258;-77
2024/01/18 06:30:59;;;;;;;3.15;0.28;;;-0.50;99.50;;;;;;5091140;28;20481;-77
2024/01/18 06:33:26;;;;;;;6.33;0.60;;;-0.40;99.50;;;;;;5088503;28;20989;-77
2024/01/18 06:35:52;;;;;;;5.10;0.35;;;-0.30;99.90;;;;;;5090081;28;20437;-77
2024/01/18 06:38:20;;;;;;;3.35;0.20;;;-0.20;99.80;;;;;;5089633;28;20421;-77
2024/01/18 06:40:49;;;;;;;3.60;0.32;;;-0.10;99.70;;;;;;5100508;28;20420;-77
2024/01/18 06:43:15;;;;;;;4.50;0.50;;;-0.10;99.10;;;;;;5088768;28;20410;-77
2024/01/18 06:45:41;;;;;;;4.90;0.50;;;-0.10;98.80;;;;;;5084103;28;20406;-77
2024/01/18 06:48:07;;;;;;;3.95;0.60;;;-0.10;98.60;;;;;;5089219;28;20496;-77
2024/01/18 06:50:33;;;;;;;3.00;0.60;;;-0.20;98.30;;;;;;5089653;28;20497;-77
2024/01/18 06:52:59;;;;;;;3.83;0.40;;;-0.20;98.00;;;;;;5090569;28;20433;-77
2024/01/18 06:55:28;;;;;;;3.03;0.50;;;-0.30;97.80;;;;;;5109073;28;20512;-77
2024/01/18 06:57:54;;;;;;;3.85;0.30;;;-0.40;97.80;;;;;;5109045;28;20985;-77
2024/01/18 07:00:23;;;;;;;4.30;0.37;;;-0.40;97.60;;;;;;5109098;28;20492;-77
2024/01/18 07:02:50;;;;;;;1.73;0.30;;;-0.50;97.50;;;;;;5095618;28;20502;-77
2024/01/18 07:05:16;;;;;;;4.28;0.60;;;-0.60;97.30;;;;;;5101922;28;20764;-77
2024/01/18 07:07:42;;;;;;;3.33;0.43;;;-0.70;96.90;;;;;;5103091;28;20392;-77
2024/01/18 07:10:08;;;;;;;6.32;0.60;;;-0.80;96.70;;;;;;5108303;28;20477;-77
2024/01/18 07:12:34;;;;;;;3.83;0.70;;;-0.90;96.70;;;;;;5105397;28;20483;-77
2024/01/18 07:14:59;;;;;;;4.90;0.40;;;-0.90;96.80;;;;;;5096125;28;20439;-77
2024/01/18 07:17:29;;;;;;;5.10;0.57;;;-0.90;97.10;;;;;;5094439;28;20402;-77
2024/01/18 07:19:56;;;;;;;2.95;0.50;;;-0.90;97.30;;;;;;5106687;28;20848;-77
2024/01/18 07:22:22;;;;;;;5.20;0.50;;;-0.90;97.40;;;;;;5105280;28;20519;-77
2024/01/18 07:24:49;;;;;;;3.90;0.65;;;-0.90;97.80;;;;;;5106754;28;20439;-77
2024/01/18 07:27:15;;;;;;;4.10;0.43;;;-0.90;98.20;;;;;;5104737;28;20514;-77
2024/01/18 07:29:40;;;;;;;4.90;0.60;;;-0.80;98.70;;;;;;5089567;28;20998;-77
2024/01/18 07:32:06;;;;;;;6.20;0.57;;;-0.70;99.00;;;;;;5100429;28;20417;-77
2024/01/18 07:34:33;;;;;;;4.20;0.80;;;-0.60;99.20;;;;;;5108965;28;20467;-77
2024/01/18 07:36:59;;;;;;;2.35;0.35;;;-0.60;99.20;;;;;;5106050;28;20414;-77
2024/01/18 07:39:25;;;;;;;5.97;0.70;;;-0.50;98.90;;;;;;5100029;28;20410;-77
2024/01/18 07:41:50;;;;;;;4.30;0.97;;;-0.50;98.80;;;;;;5101304;28;20402;-77
2024/01/18 07:44:16;;;;;;;7.23;0.83;;;-0.50;98.60;;;;;;5107510;28;20399;-77
2024/01/18 07:46:41;;;;;;;4.22;0.50;;;-0.50;98.60;;;;;;5092864;28;20408;-77
2024/01/18 07:49:07;;;;;;;5.30;0.60;;;-0.60;98.40;;;;;;5089846;28;20398;-76
2024/01/18 07:51:33;;;;;;;2.83;0.40;;;-0.60;98.30;;;;;;5089291;28;20749;-77
2024/01/18 07:53:58;;;;;;;6.53;0.57;;;-0.60;98.00;;;;;;5088577;28;20485;-77
2024/01/18 07:56:24;;;;;;;4.37;0.90;;;-0.70;97.70;;;;;;5089486;28;20426;-76
2024/01/18 07:58:49;;;;;;;5.97;1.00;;;-0.70;97.80;;;;;;5088966;28;20426;-76
2024/01/18 08:01:19;;;;;;;5.13;0.90;;;-0.70;98.10;;;;;;5088492;28;20428;-76
2024/01/18 08:03:45;;;;;;;5.27;0.80;;;-0.70;98.40;;;;;;5088669;28;20832;-77
2024/01/18 08:06:11;;;;;;;6.43;0.97;;;-0.70;98.30;;;;;;5088185;28;20425;-76
2024/01/18 08:08:39;;;;;;;6.43;0.70;;;-0.70;98.00;;;;;;5087017;28;20406;-76
2024/01/18 08:11:05;;;;;;;9.53;1.00;;;-0.80;97.70;;;;;;5088955;28;20445;-76
2024/01/18 08:13:30;;;;;;;6.50;0.87;;;-0.70;97.90;;;;;;5087168;28;20449;-77
2024/01/18 08:15:57;;;;;;;8.15;1.20;;;-0.70;98.40;;;;;;5103095;28;20438;-76
2024/01/18 08:18:24;;;;;;;7.43;1.25;;;-0.50;99.00;;;;;;5105567;28;20436;-76
2024/01/18 08:20:50;;;;;;;9.60;1.40;;;-0.40;99.50;;;;;;5105267;28;20451;-76
2024/01/18 08:23:17;;;;;;;7.57;1.23;;;-0.30;99.70;;;;;;5107026;28;20898;-77
2024/01/18 08:25:43;;;;;;;4.43;1.23;;;-0.30;99.60;;;;;;5090693;28;20417;-76
2024/01/18 08:28:10;;;;;;;4.63;0.98;;;-0.20;99.30;;;;;;5105058;28;20408;-77
2024/01/18 08:30:36;;;;;;;5.55;1.00;;;-0.30;99.10;;;;;;5101391;28;21023;-76
2024/01/18 08:33:03;;;;;;;2.93;0.80;;;-0.30;98.80;;;;;;5105338;28;20476;-76
2024/01/18 08:35:28;;;;;;;6.00;1.10;;;-0.30;98.50;;;;;;5099824;28;20470;-76
2024/01/18 08:37:54;;;;;;;3.50;0.60;;;-0.40;98.10;;;;;;5104580;28;20438;-76
2024/01/18 08:40:19;;;;;;;4.70;0.70;;;-0.40;97.90;;;;;;5102643;28;20937;-76
2024/01/18 08:42:46;;;;;;;3.55;0.60;;;-0.50;98.00;;;;;;5103942;28;20835;-77
2024/01/18 08:45:12;;;;;;;4.13;0.50;;;-0.50;98.00;;;;;;5101032;28;20489;-76
2024/01/18 08:47:39;;;;;;;3.60;0.40;;;-0.50;98.00;;;;;;5087783;28;20398;-77
2024/01/18 08:50:05;;;;;;;5.20;0.52;;;-0.50;98.20;;;;;;5088723;28;20446;-76
2024/01/18 08:52:31;;;;;;;5.47;0.70;;;-0.50;98.40;;;;;;5088130;28;20398;-77
2024/01/18 08:54:56;;;;;;;3.87;0.60;;;-0.50;98.40;;;;;;5102379;28;20864;-76
2024/01/18 08:57:22;;;;;;;6.70;0.70;;;-0.50;98.40;;;;;;5098553;28;20668;-76
2024/01/18 08:59:48;;;;;;;6.05;1.10;;;-0.50;98.40;;;;;;5101051;28;20848;-76
2024/01/18 09:02:14;;;;;;;3.42;0.88;;;-0.50;98.30;;;;;;5105461;28;20464;-76
2024/01/18 09:04:40;;;;;;;3.80;0.63;;;-0.40;98.30;;;;;;5105182;28;20390;-76
2024/01/18 09:07:06;;;;;;;4.57;0.67;;;-0.40;98.20;;;;;;5106818;28;20415;-76
2024/01/18 09:09:31;;;;;;;5.55;0.70;;;-0.40;98.20;;;;;;5103798;28;20414;-76
2024/01/18 09:11:57;;;;;;;3.80;0.70;;;-0.40;98.30;;;;;;5095752;28;20445;-76
2024/01/18 09:14:23;;;;;;;5.43;0.60;;;-0.40;98.50;;;;;;5103511;28;20463;-76
2024/01/18 09:16:49;;;;;;;6.50;0.77;;;-0.40;98.40;;;;;;5109935;28;20428;-76
2024/01/18 09:19:15;;;;;;;4.85;0.60;;;-0.40;98.60;;;;;;5107422;28;20398;-76
2024/01/18 09:21:42;;;;;;;3.58;0.57;;;-0.40;98.30;;;;;;5109745;28;20898;-76
2024/01/18 09:24:08;;;;;;;6.30;0.93;;;-0.40;98.20;;;;;;5104975;28;20404;-76
2024/01/18 09:26:33;;;;;;;9.30;0.88;;;-0.30;98.30;;;;;;5108034;28;20487;-76
2024/01/18 09:28:59;;;;;;;7.23;1.00;;;-0.30;98.30;;;;;;5104858;28;20406;-77
2024/01/18 09:31:25;;;;;;;5.78;0.68;;;-0.30;98.20;;;;;;5108060;28;20770;-76
2024/01/18 09:33:50;;;;;;;4.35;0.70;;;-0.30;98.30;;;;;;5104413;28;20405;-76
2024/01/18 09:36:16;;;;;;;4.80;0.87;;;-0.30;98.30;;;;;;5107802;28;20424;-76
2024/01/18 09:38:42;;;;;;;4.53;0.60;;;-0.20;98.40;;;;;;5103674;28;20964;-76
2024/01/18 09:41:08;;;;;;;4.95;0.52;;;-0.20;98.50;;;;;;5106318;28;20412;-76
2024/01/18 09:43:39;;;;;;;5.85;0.77;;;-0.10;98.70;;;;;;5101944;28;20405;-77
2024/01/18 09:46:06;;;;;;;4.93;0.77;;;-0.10;98.70;;;;;;5081378;28;20417;-76
2024/01/18 09:48:35;;;;;;;6.77;0.80;;;0.00;98.90;;;;;;5091769;28;20418;-76
2024/01/18 09:51:02;;;;;;;5.53;0.98;;;0.10;99.00;;;;;;5092073;28;20485;-76
2024/01/18 09:53:28;;;;;;;4.53;0.80;;;0.20;99.20;;;;;;5092065;28;20417;-76
2024/01/18 09:56:27;;;;;;;4.10;0.65;;;0.40;99.40;;;;;;5091288;28;20422;-76
2024/01/18 09:58:54;;;;;;;6.47;0.88;;;0.50;99.50;;;;;;5066965;28;20436;-76
2024/01/18 10:01:21;;;;;;;5.22;0.80;;;0.90;99.90;;;;;;5090883;28;20418;-76
2024/01/18 10:03:48;;;;;;;4.75;0.73;;;1.30;99.90;;;;;;5090890;28;20401;-76
2024/01/18 10:06:18;;;;;;;5.60;0.55;;;1.70;99.90;;;;;;5090300;28;20490;-76
2024/01/18 10:08:45;;;;;;;4.28;0.50;;;2.10;99.90;;;;;;5090484;28;20402;-77
2024/01/18 10:11:10;;;;;;;2.15;0.38;;;2.30;98.20;;;;;;5093975;28;20414;-76
2024/01/18 10:13:53;;;;;;;3.63;0.40;;;2.30;96.60;;;;;;5108222;28;20408;-76
2024/01/18 10:16:28;;;;;;;2.35;0.50;;;2.30;95.40;;;;;;5107274;28;20428;-76
2024/01/18 10:19:02;;;;;;;3.67;0.30;;;2.20;94.60;;;;;;5109372;28;20436;-76
2024/01/18 10:21:28;;;;;;;3.08;0.30;;;2.10;94.40;;;;;;5084169;28;20782;-76
2024/01/18 10:23:54;;;;;;;4.37;0.40;;;2.10;94.40;;;;;;5105946;28;20901;-76
2024/01/18 10:26:22;;;;;;;3.40;0.30;;;2.00;94.10;;;;;;5076957;28;20414;-76
2024/01/18 10:28:48;;;;;;;2.70;0.30;;;1.90;93.80;;;;;;5100813;28;20420;-76
2024/01/18 10:31:13;;;;;;;4.93;0.38;;;1.80;93.70;;;;;;5108943;27;20464;-76
2024/01/18 10:33:40;;;;;;;2.45;0.20;;;1.80;93.60;;;;;;5105973;28;20849;-76
2024/01/18 10:36:06;;;;;;;2.33;0.43;;;1.70;93.90;;;;;;5109369;28;20432;-77
2024/01/18 10:38:35;;;;;;;3.63;0.40;;;1.70;94.20;;;;;;5107815;28;20440;-76
2024/01/18 10:41:02;;;;;;;3.75;0.70;;;1.80;94.80;;;;;;5109871;28;20418;-76
2024/01/18 10:43:32;;;;;;;4.28;0.50;;;1.90;95.20;;;;;;5105305;28;20412;-76
2024/01/18 10:45:59;;;;;;;2.17;0.50;;;2.00;95.20;;;;;;5100461;28;20398;-77
2024/01/18 10:48:30;;;;;;;3.33;0.35;;;2.00;95.00;;;;;;5090910;28;20405;-79
2024/01/18 10:50:56;;;;;;;3.97;0.80;;;2.00;94.80;;;;;;5090409;28;20543;-76
2024/01/18 10:53:29;;;;;;;3.40;0.70;;;2.00;94.70;;;;;;5093384;28;20769;-76
2024/01/18 10:55:55;;;;;;;5.30;0.93;;;2.00;94.60;;;;;;5097777;28;20434;-77
2024/01/18 10:58:21;;;;;;;5.78;0.77;;;2.00;94.80;;;;;;5105788;28;20415;-76
2024/01/18 11:00:47;;;;;;;3.78;0.60;;;2.00;95.00;;;;;;5108576;28;20404;-77
2024/01/18 11:03:16;;;;;;;6.68;0.68;;;2.10;94.80;;;;;;5104911;28;20467;-77
2024/01/18 11:05:45;;;;;;;5.00;0.55;;;2.10;94.70;;;;;;5100485;28;20428;-77
2024/01/18 11:08:12;;;;;;;5.13;0.70;;;2.10;94.60;;;;;;5102597;28;21140;-76
2024/01/18 11:10:42;;;;;;;7.35;2.53;;;2.00;94.30;;;;;;5088656;28;20413;-77
2024/01/18 11:13:09;;;;;;;7.68;0.85;;;2.00;94.40;;;;;;5101550;28;20409;-77
2024/01/18 11:15:41;;;;;;;5.63;1.00;;;2.00;94.00;;;;;;5083949;28;20435;-77
2024/01/18 11:18:11;;;;;;;3.97;0.63;;;2.00;93.80;;;;;;5095043;28;20487;-77
2024/01/18 11:20:59;;;;;;;5.78;0.63;;;2.10;94.40;;;;;;5108335;28;20774;-77
2024/01/18 11:23:33;;;;;;;4.78;0.40;;;2.80;99.90;;;;;;5089503;28;20917;-77
2024/01/18 11:25:58;;;;;;;2.83;0.30;;;4.00;99.90;;;;;;5107582;28;20428;-77
2024/01/18 11:28:25;;;;;;;2.38;0.30;;;5.20;99.90;;;;;;5108642;28;20435;-77
2024/01/18 11:30:52;;;;;;;4.07;0.60;;;6.40;95.60;;;;;;5105729;28;20495;-77
2024/01/18 11:33:19;;;;;;;3.65;0.40;;;7.10;71.60;;;;;;5107491;28;20418;-78
2024/01/18 11:35:45;;;;;;;4.68;0.30;;;7.70;56.30;;;;;;5107065;28;20858;-77
2024/01/18 11:38:18;;;;;;;2.63;0.20;;;8.40;37.50;;;;;;5107275;28;20491;-78
2024/01/18 11:40:44;;;;;;;2.22;0.28;;;8.60;17.60;;;;;;5107053;28;20449;-78
2024/01/18 11:43:11;;;;;;;3.72;0.60;;;9.00;10.70;;;;;;5096333;28;20402;-77
2024/01/18 11:45:37;;;;;;;4.27;0.83;;;9.40;8.00;;;;;;5101504;28;20473;-78
2024/01/18 11:48:03;;;;;;;3.20;0.60;;;9.50;1.00;;;;;;5089722;28;20505;-78
2024/01/18 11:50:29;;;;;;;4.68;1.05;;;8.90;1.00;;;;;;5088726;28;20397;-78
2024/01/18 11:52:54;;;;;;;6.33;1.17;;;8.00;1.00;;;;;;5089370;28;20814;-78
2024/01/18 11:55:23;;;;;;;5.47;0.53;;;7.10;1.00;;;;;;5089385;28;20428;-77
2024/01/18 11:57:51;;;;;;;2.35;0.20;;;6.40;2.90;;;;;;5088345;28;20413;-78
2024/01/18 12:00:17;;;;;;;3.60;0.75;;;5.80;12.20;;;;;;5087707;28;20421;-77
2024/01/18 12:02:43;;;;;;;2.70;0.45;;;5.40;20.10;;;;;;5089483;28;20477;-77
2024/01/18 12:05:09;;;;;;;5.22;0.47;;;5.00;24.20;;;;;;5088044;28;20418;-77
2024/01/18 12:07:35;;;;;;;6.53;0.55;;;4.60;27.80;;;;;;5088130;28;20401;-77
2024/01/18 12:10:01;;;;;;;2.58;0.20;;;4.30;33.90;;;;;;5076344;28;20405;-77
2024/01/18 12:12:28;;;;;;;3.40;0.30;;;4.10;38.50;;;;;;5101690;28;20432;-78
2024/01/18 12:14:53;;;;;;;2.33;0.30;;;3.90;44.00;;;;;;5081713;28;20419;-77
2024/01/18 12:17:20;;;;;;;3.57;0.40;;;3.70;47.00;;;;;;5093146;28;20406;-77
2024/01/18 12:19:47;;;;;;;3.83;0.50;;;3.70;50.60;;;;;;5106478;28;20411;-76
2024/01/18 12:22:17;;;;;;;3.70;0.30;;;3.70;52.90;;;;;;5105098;28;20412;-77
2024/01/18 12:24:45;;;;;;;3.40;0.30;;;3.80;58.30;;;;;;5095136;28;20591;-77
2024/01/18 12:27:11;;;;;;;2.67;0.35;;;4.00;56.70;;;;;;5087187;28;20446;-77
2024/01/18 12:29:39;;;;;;;2.40;0.20;;;4.00;54.90;;;;;;5106197;28;20412;-77
2024/01/18 12:32:04;;;;;;;2.58;0.50;;;4.30;55.80;;;;;;5105935;28;21162;-77
2024/01/18 12:34:32;;;;;;;4.85;0.60;;;4.40;49.10;;;;;;5099610;28;20544;-77
2024/01/18 12:37:02;;;;;;;5.30;0.60;;;4.40;50.50;;;;;;5100613;28;20505;-77
2024/01/18 12:39:30;;;;;;;3.57;0.50;;;4.60;50.00;;;;;;5106790;28;20396;-77
2024/01/18 12:41:57;;;;;;;5.43;0.70;;;4.70;48.50;;;;;;5105559;28;20500;-77
2024/01/18 12:44:23;;;;;;;4.57;0.60;;;4.90;52.80;;;;;;5106693;28;20400;-77
2024/01/18 12:46:51;;;;;;;4.05;0.70;;;5.30;52.60;;;;;;5091395;28;20484;-77